地図

経路データ

SID SEASON NUMBER BASIN SUBBASIN NAME ISO_TIME NATURE LAT LON WMO_WIND WMO_PRES WMO_AGENCY TRACK_TYPE DIST2LAND LANDFALL IFLAG USA_AGENCY USA_ATCF_ID USA_LAT USA_LON USA_RECORD USA_STATUS USA_WIND USA_PRES USA_SSHS USA_R34_NE USA_R34_SE USA_R34_SW USA_R34_NW USA_R50_NE USA_R50_SE USA_R50_SW USA_R50_NW USA_R64_NE USA_R64_SE USA_R64_SW USA_R64_NW USA_POCI USA_ROCI USA_RMW USA_EYE TOKYO_LAT TOKYO_LON TOKYO_GRADE TOKYO_WIND TOKYO_PRES TOKYO_R50_DIR TOKYO_R50_LONG TOKYO_R50_SHORT TOKYO_R30_DIR TOKYO_R30_LONG TOKYO_R30_SHORT TOKYO_LAND CMA_LAT CMA_LON CMA_CAT CMA_WIND CMA_PRES HKO_LAT HKO_LON HKO_CAT HKO_WIND HKO_PRES NEWDELHI_LAT NEWDELHI_LON NEWDELHI_GRADE NEWDELHI_WIND NEWDELHI_PRES NEWDELHI_CI NEWDELHI_DP NEWDELHI_POCI REUNION_LAT REUNION_LON REUNION_TYPE REUNION_WIND REUNION_PRES REUNION_TNUM REUNION_CI REUNION_RMW REUNION_R34_NE REUNION_R34_SE REUNION_R34_SW REUNION_R34_NW REUNION_R50_NE REUNION_R50_SE REUNION_R50_SW REUNION_R50_NW REUNION_R64_NE REUNION_R64_SE REUNION_R64_SW REUNION_R64_NW BOM_LAT BOM_LON BOM_TYPE BOM_WIND BOM_PRES BOM_TNUM BOM_CI BOM_RMW BOM_R34_NE BOM_R34_SE BOM_R34_SW BOM_R34_NW BOM_R50_NE BOM_R50_SE BOM_R50_SW BOM_R50_NW BOM_R64_NE BOM_R64_SE BOM_R64_SW BOM_R64_NW BOM_ROCI BOM_POCI BOM_EYE BOM_POS_METHOD BOM_PRES_METHOD NADI_LAT NADI_LON NADI_CAT NADI_WIND NADI_PRES WELLINGTON_LAT WELLINGTON_LON WELLINGTON_WIND WELLINGTON_PRES DS824_LAT DS824_LON DS824_STAGE DS824_WIND DS824_PRES TD9636_LAT TD9636_LON TD9636_STAGE TD9636_WIND TD9636_PRES TD9635_LAT TD9635_LON TD9635_WIND TD9635_PRES TD9635_ROCI NEUMANN_LAT NEUMANN_LON NEUMANN_CLASS NEUMANN_WIND NEUMANN_PRES MLC_LAT MLC_LON MLC_CLASS MLC_WIND MLC_PRES USA_GUST BOM_GUST BOM_GUST_PER REUNION_GUST REUNION_GUST_PER USA_SEAHGT USA_SEARAD_NE USA_SEARAD_SE USA_SEARAD_SW USA_SEARAD_NW STORM_SPEED STORM_DIR
1970207N21139 1970 72 WP MM NOT_NAMED 1970-07-26 00:00:00 TS 20.8000 139.300 main 1421 1404 __O___________ -1 20.8000 139.300 0 19 1009 7 274
1970207N21139 1970 72 WP MM NOT_NAMED 1970-07-26 03:00:00 TS 20.8201 138.953 main 1404 1383 __P___________ -1 20.8201 138.953 0 21 1008 7 270
1970207N21139 1970 72 WP MM NOT_NAMED 1970-07-26 06:00:00 TS 20.8000 138.600 main 1383 1373 __O___________ -1 20.8000 138.600 1 23 1008 7 261
1970207N21139 1970 72 WP MM NOT_NAMED 1970-07-26 09:00:00 TS 20.7150 138.242 main 1372 1361 __P___________ -1 20.7150 138.242 1 23 1008 7 253
1970207N21139 1970 72 WP MM NOT_NAMED 1970-07-26 12:00:00 TS 20.6000 137.900 main 1365 1360 __O___________ -1 20.6000 137.900 1 23 1008 6 250
1970207N21139 1970 72 WP MM NOT_NAMED 1970-07-26 15:00:00 TS 20.4999 137.600 main 1360 1355 __P___________ -1 20.4999 137.600 1 23 1008 6 250
1970207N21139 1970 72 WP MM NOT_NAMED 1970-07-26 18:00:00 TS 20.4000 137.300 main 1355 1350 __O___________ -1 20.4000 137.300 1 23 1008 6 252
1970207N21139 1970 72 WP MM NOT_NAMED 1970-07-26 21:00:00 TS 20.3000 136.958 main 1350 1341 __P___________ -1 20.3000 136.958 1 23 1008 7 253
1970207N21139 1970 72 WP MM NOT_NAMED 1970-07-27 00:00:00 TS 20.2000 136.600 main 1342 1338 __O___________ -1 20.2000 136.600 1 23 1008 7 252
1970207N21139 1970 72 WP MM NOT_NAMED 1970-07-27 03:00:00 TS 20.0923 136.265 main 1340 1331 __P___________ -1 20.0923 136.265 1 21 1007 7 253
1970207N21139 1970 72 WP MM NOT_NAMED 1970-07-27 06:00:00 TS 20.0000 135.900 main 1334 1322 __O___________ -1 20.0000 135.900 0 19 1007 8 258
1970207N21139 1970 72 WP MM NOT_NAMED 1970-07-27 09:00:00 TS 19.9274 135.472 main 1329 1312 __P___________ -1 19.9274 135.472 0 19 1006 9 263
1970207N21139 1970 72 WP MM NOT_NAMED 1970-07-27 12:00:00 TS 19.9000 135.000 main 1312 1266 __O___________ -1 19.9000 135.000 0 19 1006 9 270
1970207N21139 1970 72 WP MM NOT_NAMED 1970-07-27 15:00:00 TS 19.9349 134.508 main 1266 1227 __P___________ -1 19.9349 134.508 0 19 1006 9 276
1970207N21139 1970 72 WP MM NOT_NAMED 1970-07-27 18:00:00 TS 20.0000 134.000 main 1227 1190 __O___________ -1 20.0000 134.000 0 19 1006 10 279
1970207N21139 1970 72 WP MM NOT_NAMED 1970-07-27 21:00:00 TS 20.0874 133.500 main 1190 1139 __P___________ -1 20.0874 133.500 0 19 1006 9 276
1970207N21139 1970 72 WP MM NOT_NAMED 1970-07-28 00:00:00 TS 20.1000 133.000 main 1139 1084 __O___________ -1 20.1000 133.000 0 19 1006 10 260
1970207N21139 1970 72 WP MM NOT_NAMED 1970-07-28 03:00:00 TS 19.9149 132.500 main 1084 1029 __P___________ -1 19.9149 132.500 0 19 1005 10 247
1970207N21139 1970 72 WP MM NOT_NAMED 1970-07-28 06:00:00 TS 19.7000 132.000 main 1029 976 __O___________ -1 19.7000 132.000 0 19 1005 10 253
1970207N21139 1970 72 WP MM NOT_NAMED 1970-07-28 09:00:00 TS 19.6199 131.500 main 976 924 __P___________ -1 19.6199 131.500 0 19 1004 9 264
1970207N21139 1970 72 WP MM NOT_NAMED 1970-07-28 12:00:00 TS 19.6000 131.000 main 924 872 __O___________ -1 19.6000 131.000 0 19 1004 10 268
1970207N21139 1970 72 WP MM NOT_NAMED 1970-07-28 15:00:00 TS 19.5849 130.493 main 872 820 __P___________ -1 19.5849 130.493 0 19 1004 9 270
1970207N21139 1970 72 WP MM NOT_NAMED 1970-07-28 18:00:00 TS 19.6000 130.000 main 820 779 __O___________ -1 19.6000 130.000 0 19 1004 9 274
1970207N21139 1970 72 WP MM NOT_NAMED 1970-07-28 21:00:00 TS 19.6423 129.543 main 768 729 __P___________ -1 19.6423 129.543 0 19 1004 9 277
1970207N21139 1970 72 WP MM NOT_NAMED 1970-07-29 00:00:00 TS 19.7000 129.100 main 729 688 __O___________ -1 19.7000 129.100 0 19 1004 9 277
1970207N21139 1970 72 WP MM NOT_NAMED 1970-07-29 03:00:00 TS 19.7499 128.642 main 677 639 __P___________ -1 19.7499 128.642 0 19 1004 9 277
1970207N21139 1970 72 WP MM NOT_NAMED 1970-07-29 06:00:00 TS 19.8000 128.200 main 639 598 __O___________ -1 19.8000 128.200 0 19 1004 8 276
1970207N21139 1970 72 WP MM NOT_NAMED 1970-07-29 09:00:00 TS 19.8349 127.792 main 598 561 __P___________ -1 19.8349 127.792 0 19 1004 8 278
1970207N21139 1970 72 WP MM NOT_NAMED 1970-07-29 12:00:00 TS 19.9000 127.400 main 561 524 __O___________ -1 19.9000 127.400 0 19 1004 8 285
1970207N21139 1970 72 WP MM NOT_NAMED 1970-07-29 15:00:00 TS 20.0349 127.000 main 524 494 __P___________ -1 20.0349 127.000 0 19 1004 8 292
1970207N21139 1970 72 WP MM NOT_NAMED 1970-07-29 18:00:00 TS 20.2000 126.600 main 494 461 __O___________ -1 20.2000 126.600 0 19 1004 8 293
1970207N21139 1970 72 WP MM NOT_NAMED 1970-07-29 21:00:00 TS 20.3651 126.170 main 466 435 __P___________ -1 20.3651 126.170 0 19 1004 8 292
1970207N21139 1970 72 WP MM NOT_NAMED 1970-07-30 00:00:00 TS 20.5000 125.800 main 435 424 __O___________ -1 20.5000 125.800 0 19 1004 6 290
1970207N21139 1970 72 WP MM NOT_NAMED 1970-07-30 03:00:00 TS 20.5723 125.577 main 424 407 __P___________ -1 20.5723 125.577 0 19 1004 4 285
1970207N21139 1970 72 WP MM NOT_NAMED 1970-07-30 06:00:00 TS 20.6000 125.400 main 407 391 __O___________ -1 20.6000 125.400 0 19 1004 4 275
1970207N21139 1970 72 WP MM NOT_NAMED 1970-07-30 09:00:00 TS 20.6075 125.150 main 382 367 __P___________ -1 20.6075 125.150 0 19 1004 5 270
1970207N21139 1970 72 WP MM NOT_NAMED 1970-07-30 12:00:00 TS 20.6000 124.900 main 367 351 __O___________ -1 20.6000 124.900 0 19 1004 4 268
1970207N21139 1970 72 WP MM NOT_NAMED 1970-07-30 15:00:00 TS 20.5924 124.692 main 351 337 __P___________ -1 20.5924 124.692 0 19 1004 4 270
1970207N21139 1970 72 WP MM NOT_NAMED 1970-07-30 18:00:00 TS 20.6000 124.500 main 337 323 __O___________ -1 20.6000 124.500 0 19 1004 4 278
1970207N21139 1970 72 WP MM NOT_NAMED 1970-07-30 21:00:00 TS 20.6424 124.315 main 323 318 __P___________ -1 20.6424 124.315 0 19 1004 4 285
1970207N21139 1970 72 WP MM NOT_NAMED 1970-07-31 00:00:00 TS 20.7000 124.100 main 318 307 __O___________ -1 20.7000 124.100 0 19 1004 5 284
1970207N21139 1970 72 WP MM NOT_NAMED 1970-07-31 03:00:00 TS 20.7576 123.808 main 311 295 __P___________ -1 20.7576 123.808 0 21 1003 6 280
1970207N21139 1970 72 WP MM NOT_NAMED 1970-07-31 06:00:00 TS 20.8000 123.500 main 295 277 __O___________ -1 20.8000 123.500 1 23 1002 5 275
1970207N21139 1970 72 WP MM NOT_NAMED 1970-07-31 09:00:00 TS 20.7999 123.242 main 268 249 __P___________ -1 20.7999 123.242 1 30 1001 5 270
1970207N21139 1970 72 WP MM NOT_NAMED 1970-07-31 12:00:00 TS 20.8000 123.000 main 249 223 __O___________ -1 20.8000 123.000 2 38 1000 5 273
1970207N21139 1970 72 WP MM NOT_NAMED 1970-07-31 15:00:00 TS 20.8275 122.735 main 223 199 __P___________ -1 20.8275 122.735 2 38 1000 5 282
1970207N21139 1970 72 WP MM NOT_NAMED 1970-07-31 18:00:00 TS 20.9000 122.500 main 199 176 __O___________ -1 20.9000 122.500 2 38 1000 4 300
1970207N21139 1970 72 WP MM NOT_NAMED 1970-07-31 21:00:00 TS 21.0424 122.342 main 176 159 __P___________ -1 21.0424 122.342 2 38 998 4 340
1970207N21139 1970 72 WP MM NOT_NAMED 1970-08-01 00:00:00 TS 21.3200 122.340 main 159 141 __OO__________ -1 21.2000 122.200 2 38 996 21.8000 122.900 TD 25 1000 5 346
1970207N21139 1970 72 WP MM NOT_NAMED 1970-08-01 03:00:00 TS 21.5173 122.218 main 141 138 __PP__________ -1 21.3296 122.075 2 38 996 21.8927 122.505 TD 25 1000 3 332
1970207N21139 1970 72 WP MM NOT_NAMED 1970-08-01 06:00:00 TS 21.6222 122.167 main 138 85 O_OO_____O____ jtwc_wp WP261970 21.5000 123.000 TD -1 21.4000 121.800 2 38 996 22.0000 122.100 TD 25 1000 21.5000 123.000 TC 6 291
1970207N21139 1970 72 WP MM NOT_NAMED 1970-08-01 09:00:00 TS 21.7330 121.628 main 75 15 P_PP_____P____ WP261970 21.7099 121.924 TD -1 21.3577 121.225 2 38 996 22.1348 121.672 TD 25 1000 21.7027 122.051 TC 11 281
1970207N21139 1970 72 WP MM NOT_NAMED 1970-08-01 12:00:00 TS 21.8333 121.000 main 15 0 O_OO_____OO___ jtwc_wp WP261970 21.9000 121.100 TD -1 21.3000 120.500 2 38 996 22.3000 121.200 TD 25 1000 21.9000 121.100 TC 21.7000 121.600 1 11 283
1970207N21139 1970 72 WP MM NOT_NAMED 1970-08-01 15:00:00 TS 21.9834 120.481 main 20 20 P_PP_____PP___ WP261970 22.0760 120.669 TD -1 21.3126 119.785 2 38 996 22.4923 120.680 TD 25 1000 22.1005 120.701 TC 22.0048 120.880 1 11 288
1970207N21139 1970 72 WP MM NOT_NAMED 1970-08-01 18:00:00 TS 22.1680 119.898 main 53 53 O_OO_____OP___ jtwc_wp WP261970 22.3000 120.300 TD -1 21.4000 119.100 2 38 996 22.7000 120.100 TD 25 1000 22.3000 120.300 TC 22.3065 120.156 1 13 288
1970207N21139 1970 72 WP MM NOT_NAMED 1970-08-01 21:00:00 TS 22.3684 119.177 main 111 111 P_PP______P___ WP261970 22.6217 119.649 TD -1 21.5697 118.513 2 43 994 22.9222 119.480 TD 27 998 TC 22.6049 119.430 1 14 286
1970207N21139 1970 72 WP MM NOT_NAMED 1970-08-02 00:00:00 TS 22.5500 118.470 main 153 123 O_OO______O___ jtwc_wp WP261970 23.0000 118.800 TD -1 21.8000 118.000 3 48 992 23.1000 118.800 TD 30 996 22.9000 118.700 1 13 281
1970207N21139 1970 72 WP MM NOT_NAMED 1970-08-02 03:00:00 TS 22.6112 117.789 main 123 75 __PP__________ WP261970 TD -1 22.0497 117.535 3 48 991 23.1726 118.042 TD 30 994 1 12 280
1970207N21139 1970 72 WP MM NOT_NAMED 1970-08-02 06:00:00 TS 22.7500 117.200 main 69 20 __OO__________ -1 22.3000 117.100 3 48 990 23.2000 117.300 TD 30 992 1 11 286
1970207N21139 1970 72 WP MM NOT_NAMED 1970-08-02 09:00:00 TS 22.9083 116.679 main 20 0 __PP__________ -1 22.5521 116.680 3 48 990 23.2645 116.678 TD 30 992 1 10 284
1970207N21139 1970 72 WP MM NOT_NAMED 1970-08-02 12:00:00 TS 23.0000 116.150 main 0 0 __OO__________ -1 22.7000 116.200 3 48 990 23.3000 116.100 TD 30 992 10 271
1970207N21139 1970 72 WP MM NOT_NAMED 1970-08-02 15:00:00 TS 22.9248 115.547 main 0 0 __PP__________ -1 22.5927 115.564 3 43 991 23.2569 115.530 TD 27 994 12 260
1970207N21139 1970 72 WP MM NOT_NAMED 1970-08-02 18:00:00 TS 22.8000 114.900 main 0 0 __OO__________ -1 22.5000 114.900 2 38 993 23.2000 114.900 TD 25 997 12 267
1970207N21139 1970 72 WP MM NOT_NAMED 1970-08-02 21:00:00 TS 22.8549 114.290 main 0 0 __PP__________ -1 22.6893 114.365 2 33 994 23.1862 114.140 TD 25 997 11 282
1970207N21139 1970 72 WP MM NOT_NAMED 1970-08-03 00:00:00 TS 23.0400 113.700 main 0 0 __OO__________ -1 23.0000 113.800 1 29 995 23.2000 113.300 TD 25 998 12 293
1970207N21139 1970 72 WP MM NOT_NAMED 1970-08-03 03:00:00 TS 23.3378 113.058 main 0 0 __P___________ -1 23.3378 113.058 1 24 995 TD 14 294
1970207N21139 1970 72 WP MM NOT_NAMED 1970-08-03 06:00:00 TS 23.6000 112.300 main 0 0 __O___________ -1 23.6000 112.300 0 19 995 13 284
1970207N21139 1970 72 WP MM NOT_NAMED 1970-08-03 09:00:00 TS 23.6522 111.654 main 0 0 __P___________ -1 23.6522 111.654 0 18 995 11 270
1970207N21139 1970 72 WP MM NOT_NAMED 1970-08-03 12:00:00 TS 23.6000 111.100 main 0 0 __O___________ -1 23.6000 111.100 0 17 995 10 260
1970207N21139 1970 72 WP MM NOT_NAMED 1970-08-03 15:00:00 TS 23.4898 110.604 main 0 0 __P___________ -1 23.4898 110.604 0 17 995 8 263
1970207N21139 1970 72 WP MM NOT_NAMED 1970-08-03 18:00:00 TS 23.5000 110.200 main 0 0 __O___________ -1 23.5000 110.200 0 17 995 8 298
1970207N21139 1970 72 WP MM NOT_NAMED 1970-08-03 21:00:00 TS 23.8473 109.878 main 0 0 __P___________ -1 23.8473 109.878 0 17 995 10 326
1970207N21139 1970 72 WP MM NOT_NAMED 1970-08-04 00:00:00 TS 24.3000 109.600 main 0 0 __O___________ -1 24.3000 109.600 0 17 995 10 326
1970207N21139 1970 72 WP MM NOT_NAMED 1970-08-04 03:00:00 TS 24.6374 109.300 main 0 0 __P___________ -1 24.6374 109.300 0 17 995 8 318
1970207N21139 1970 72 WP MM NOT_NAMED 1970-08-04 06:00:00 TS 24.9000 109.000 main 0 0 __O___________ -1 24.9000 109.000 0 17 995 7 308
1970207N21139 1970 72 WP MM NOT_NAMED 1970-08-04 09:00:00 TS 25.0800 108.677 main 0 0 __P___________ -1 25.0800 108.677 0 17 995 6 299
1970207N21139 1970 72 WP MM NOT_NAMED 1970-08-04 12:00:00 TS 25.2000 108.400 main 0 0 __O___________ -1 25.2000 108.400 0 17 996 5 294
1970207N21139 1970 72 WP MM NOT_NAMED 1970-08-04 15:00:00 TS 25.2774 108.197 main 0 0 __P___________ -1 25.2774 108.197 0 17 996 3 306
1970207N21139 1970 72 WP MM NOT_NAMED 1970-08-04 18:00:00 TS 25.4000 108.100 main 0 0 __O___________ -1 25.4000 108.100 0 17 997 4 349
1970207N21139 1970 72 WP MM NOT_NAMED 1970-08-04 21:00:00 TS 25.6775 108.105 main 0 0 __P___________ -1 25.6775 108.105 0 17 997 6 8
1970207N21139 1970 72 WP MM NOT_NAMED 1970-08-05 00:00:00 TS 26.0000 108.200 main 0 0 __O___________ -1 26.0000 108.200 0 17 998 6 19
1970207N21139 1970 72 WP MM NOT_NAMED 1970-08-05 03:00:00 TS 26.2701 108.340 main 0 0 __P___________ -1 26.2701 108.340 0 17 999 6 28
1970207N21139 1970 72 WP MM NOT_NAMED 1970-08-05 06:00:00 TS 26.5000 108.500 main 0 __O___________ -1 26.5000 108.500 0 17 1000 5 32

デジタル台風データ・検索

IBTrACS Databaseについて

本データベースは、米国NOAAが公開する1842年以降の世界の熱帯低気圧のベストトラックデータアーカイブInternational Best Track Archive for Climate Stewardship (IBTrACS)を、ウェブで閲覧しやすい形式に変換したものです。

最終更新日:2021-12-08